Airport View

Enter AWOS ICAO identifier for current METAR.

ex. KFNL

KAWG 171205Z AUTO 17008KT 6SM BR CLR 02/01 A2996 RMK AO2

17 Nov 2019 12:09

Frequency: 127.825

Phone: 319-653-4149

Other Area AWOS: KFFL - KMPZ - KIOW - KMUT

TAF KOTM 171120Z 1712/1812 18005KT P6SM OVC090 FM171500 23005KT P6SM VCSH OVC050 TEMPO 1715/1717 5SM -RA BR OVC030 FM171700 31005KT P6SM VCSH OVC025 FM171800 32006KT P6SM OVC015 FM181000 00000KT P6SM BKN010